Impacts TAF Board INFO
FOR SITUATIONAL AWARENESS. NOT TO BE USED FOR FLIGHT PLANNING PURPOSES.
IDs:

KMIA - Miami Intl, FL, US

Issued at 1506 UTC 18 Jan 2018
Updated at 1548 UTC 18 Jan 2018
Potential Impact None Slight Moderate High
Time1453Z 18/16Z 18/17Z 18/18Z 18/19Z 18/20Z 18/21Z 18/22Z 18/23Z 19/00Z 19/01Z 19/02Z 19/03Z 19/04Z>>
Type OBS PRVL PRVL PRVL PRVL PRVL PRVL PRVL PRVL PRVL PRVL PRVL PRVL PRVL
VIS 10 >6 >6 >6 >6 >6 >6 >6 >6 >6 >6 >6 >6 >6
CIG -- -- -- -- -- -- -- -- -- -- -- -- -- --
Cover SCT SCT SCT SCT SCT SCT SCT SCT SCT SCT SCT SCT SCT SCT
FltCat VFR VFR VFR VFR VFR VFR VFR VFR VFR VFR VFR VFR VFR VFR
WX -- -- -- -- -- -- -- -- -- -- -- -- -- --
WDir 350 340 340 340 340 340 340 340 20 20 20 20 20 20
WSpd 9 12 12 12 12 12 12 12 6 6 6 6 6 6
WGst -- 18 18 18 18 18 18 18 -- -- -- -- -- --

Raw TAF
KMIA 181506Z 1815/1918 34012G18KT P6SM SCT250
  FM182300 02006KT P6SM SCT250
  FM190800 35006KT P6SM SCT250
  FM191500 02009KT P6SM SCT250


Raw METAR
KMIA 181453Z 35009KT 10SM FEW030 SCT250 10/03 A3033 RMK AO2 SLP269 T01000028 51019
KMIA 181353Z 33011G15KT 10SM FEW025 FEW250 08/01 A3031 RMK AO2 SLP264 T00780006
KMIA 181253Z 34009G16KT 10SM CLR 07/M01 A3029 RMK AO2 SLP256 T00671006

METAR Board
Radar Display
Forecast Discussion

FOR SITUATIONAL AWARENESS. NOT TO BE USED FOR FLIGHT PLANNING PURPOSES.